Aeropuerto Internacional General Rafael Buelna, México

4:17 AM MDT en Octubre 24, 2014 (GMT -0600)
Gen Rafael Buelna International | Change Station
CLOSE
Current Station
Aeropuerto
Location: Mazatlan Airport,
Altura: 33 ft
Estaciones meteorológicas cercanas

Alt 33 ft 23.16 °N, 106.27 °W | Updated 32 minutes ago

Clear
Despejado
72 ° F
Sensación térmica 72 ° F
N
0
Viento Variable Viento desde Norte

Hoy
Alta -- | Baja -- ° F
--% Posibilidad de precipitaciones
Ayer
Alta -- | Baja -- ° F
Precip. -- pul
7:06 AM 6:32 PM
Luna nueva, 0% visible
Presión 29.88 pul
Visibilidad 10.0 Millas
Nubes Despejado
Punto de rocío 68 ° F
Humedad 88%
Precipitaciones 0.00 pul
Espesor de la nieve No disponible.
UV 0 de una escala de 12
Polen No disponible.
Calidad del aire No disponible.
Flu Activity No disponible.
METAR MMMZ 240945Z 00000KT 10SM SKC 22/20 A2988 RMK HZY ISOL AC

More Conditions Fewer Conditions

Presión 29.88 pul
Visibilidad 10.0 Millas
Nubes Despejado
Punto de rocío 68 ° F
Humedad 88%
Precipitaciones 0.00 pul
Espesor de la nieve No disponible.
UV 0 de una escala de 12
Polen No disponible.
Calidad del aire No disponible.
Flu Activity No disponible.
METAR MMMZ 240945Z 00000KT 10SM SKC 22/20 A2988 RMK HZY ISOL AC

More Conditions Fewer Conditions

10-Day Weather Forecast

Almanac

Astronomía

Oct. 24, 2014 Salida Puesta
Hora real 7:06 AM MDT 6:32 PM MDT
Crepúsculo civil 6:43 AM MDT 6:54 PM MDT
Crepúsculo náutico 6:16 AM MDT 7:21 PM MDT
Crepúsculo astronómico 5:50 AM MDT 7:47 PM MDT
Luna 7:44 AM MDT 7:19 PM MDT
Horas de luz 12h 11m
Horas de luz
11h 25m
Tomorrow will be 1m 14s shorter.
Luna nueva, 0% of the Moon is Illuminated
Hoy
Luna nueva
Oct 30
Cuarto creciente
Nov 6
Luna llena
Nov 14
Cuarto menguante
Nov 22
Nueva

Extremos de ayer

Máximos del país Bajas del país

Community

WunderPhotos

Upload Photos

1,764,513 ¡fotos cargadas!

WunderBlogs® & News

Nearby

Calidad del aire

Not available.

Grosos de nieve

Not available.

Actividad de terremotos

Ciudad Distance Mag. Tiempo y dato
No hay informes recientes de la actividad sísmica.
Magnitud mínima muestra es 2,5.

Temperaturas de aguas costeras

Lugar Temperatura
Sin partes meteorológicos de las estaciones

Estaciones meteorológicas cercanas